Time;durP1;ratioP1;P1;durP2;ratioP2;P2;SDS_P1;SDS_P2;PMS_P1;PMS_P2;Temp;Humidity;BMP_temperature;BMP_pressure;BME280_temperature;BME280_humidity;BME280_pressure;Samples;Min_cycle;Max_cycle;Signal;HPM_P1;HPM_P2
2022/07/06 00:01:47;;;;;;;2.85;2.65;;;;;;;22.73;100.00;99390.00;1757680;79;21148;-55
2022/07/06 00:04:13;;;;;;;2.52;2.33;;;;;;;22.72;100.00;99384.16;1764225;79;21583;-56
2022/07/06 00:06:40;;;;;;;3.35;2.50;;;;;;;22.70;100.00;99387.09;1762827;79;21055;-56
2022/07/06 00:09:06;;;;;;;2.87;2.47;;;;;;;22.69;100.00;99377.64;1756311;79;22453;-56
2022/07/06 00:11:34;;;;;;;5.95;3.65;;;;;;;22.69;100.00;99380.39;1754772;79;21030;-55
2022/07/06 00:14:01;;;;;;;5.17;2.65;;;;;;;22.68;100.00;99380.03;1755460;80;21069;-56
2022/07/06 00:16:28;;;;;;;3.22;2.90;;;;;;;22.66;100.00;99378.81;1758534;79;21056;-55
2022/07/06 00:18:54;;;;;;;3.72;2.87;;;;;;;22.64;100.00;99376.22;1760352;79;21053;-55
2022/07/06 00:21:21;;;;;;;3.20;2.92;;;;;;;22.62;100.00;99376.92;1757662;79;21477;-55
2022/07/06 00:23:47;;;;;;;3.33;2.95;;;;;;;22.60;100.00;99375.34;1756063;79;21065;-56
2022/07/06 00:26:14;;;;;;;2.77;1.62;;;;;;;22.56;100.00;99370.67;1756056;79;21049;-56
2022/07/06 00:28:40;;;;;;;2.90;2.20;;;;;;;22.53;100.00;99366.91;1758622;79;21054;-55
2022/07/06 00:31:07;;;;;;;3.27;3.10;;;;;;;22.49;100.00;99371.47;1754167;79;21034;-56
2022/07/06 00:33:34;;;;;;;5.97;2.37;;;;;;;22.46;100.00;99369.91;1761374;79;21245;-55
2022/07/06 00:36:00;;;;;;;2.55;2.35;;;;;;;22.43;100.00;99370.24;1722995;80;21625;-55
2022/07/06 00:38:27;;;;;;;2.85;2.75;;;;;;;22.41;100.00;99368.66;1756750;79;21006;-55
2022/07/06 00:40:54;;;;;;;3.67;2.62;;;;;;;22.39;100.00;99371.56;1758344;79;21104;-56
2022/07/06 00:43:21;;;;;;;3.20;2.90;;;;;;;22.37;100.00;99380.98;1760078;79;21054;-56
2022/07/06 00:45:47;;;;;;;3.87;3.60;;;;;;;22.33;100.00;99376.82;1754673;79;21077;-55
2022/07/06 00:48:14;;;;;;;2.75;2.55;;;;;;;22.29;100.00;99368.58;1757058;80;21566;-56
2022/07/06 00:50:42;;;;;;;3.00;2.15;;;;;;;22.23;100.00;99364.05;1760392;79;21349;-56
2022/07/06 00:53:09;;;;;;;3.25;3.05;;;;;;;22.19;100.00;99368.66;1757861;79;21020;-55
2022/07/06 00:55:41;;;;;;;2.50;2.30;;;;;;;22.16;100.00;99364.84;1761651;79;21525;-55
2022/07/06 00:58:08;;;;;;;3.67;3.42;;;;;;;22.14;100.00;99369.61;1757774;79;21544;-55
2022/07/06 01:00:36;;;;;;;3.47;3.37;;;;;;;22.11;100.00;99371.31;1762487;79;21038;-56
2022/07/06 01:03:03;;;;;;;3.00;2.80;;;;;;;22.08;100.00;99368.37;1760170;79;21133;-55
2022/07/06 01:05:29;;;;;;;4.33;3.92;;;;;;;22.04;100.00;99366.08;1758515;79;21042;-55
2022/07/06 01:07:56;;;;;;;3.70;3.50;;;;;;;22.01;100.00;99363.16;1760070;79;21447;-55
2022/07/06 01:10:23;;;;;;;4.45;4.15;;;;;;;21.97;100.00;99368.59;1756176;79;21119;-55
2022/07/06 01:12:49;;;;;;;3.12;2.92;;;;;;;21.93;100.00;99365.79;1756275;79;21062;-55
2022/07/06 01:15:19;;;;;;;7.90;3.05;;;;;;;21.88;100.00;99360.76;1699244;83;21562;-55
2022/07/06 01:17:47;;;;;;;5.08;3.15;;;;;;;21.87;100.00;99365.02;1701007;82;21384;-56
2022/07/06 01:20:17;;;;;;;3.33;2.50;;;;;;;21.84;100.00;99360.73;1718681;81;21073;-55
2022/07/06 01:22:45;;;;;;;2.92;2.72;;;;;;;21.84;100.00;99362.10;1720611;81;21218;-55
2022/07/06 01:25:12;;;;;;;3.08;2.98;;;;;;;21.82;100.00;99364.12;1761150;79;21053;-55
2022/07/06 01:27:40;;;;;;;2.70;2.60;;;;;;;21.82;100.00;99364.12;1763092;79;21538;-55
2022/07/06 01:30:13;;;;;;;4.97;3.35;;;;;;;21.82;100.00;99360.52;1758180;79;21045;-56
2022/07/06 01:32:39;;;;;;;4.42;2.80;;;;;;;21.80;100.00;99362.04;1734277;79;21045;-56
2022/07/06 01:35:08;;;;;;;3.50;3.15;;;;;;;21.79;100.00;99363.05;1728111;80;21883;-55
2022/07/06 01:37:36;;;;;;;3.35;3.15;;;;;;;21.76;100.00;99356.53;1730469;80;21055;-56
2022/07/06 01:40:06;;;;;;;2.80;2.60;;;;;;;21.73;100.00;99355.46;1727562;80;21033;-55
2022/07/06 01:42:32;;;;;;;2.92;2.65;;;;;;;21.71;100.00;99364.34;1728654;80;21069;-55
2022/07/06 01:44:59;;;;;;;2.85;2.65;;;;;;;21.69;100.00;99359.51;1732186;80;21160;-56
2022/07/06 01:47:26;;;;;;;3.15;2.55;;;;;;;21.68;100.00;99359.19;1735301;80;21131;-55
2022/07/06 01:49:52;;;;;;;2.30;2.20;;;;;;;21.68;100.00;99358.32;1699367;82;21490;-56
2022/07/06 01:52:21;;;;;;;2.85;2.75;;;;;;;21.68;100.00;99358.32;1670191;83;21118;-55
2022/07/06 01:54:47;;;;;;;2.92;2.83;;;;;;;21.66;100.00;99357.09;1698702;82;21072;-53
2022/07/06 01:57:14;;;;;;;4.70;2.75;;;;;;;21.64;100.00;99353.64;1665285;83;21571;-55
2022/07/06 01:59:42;;;;;;;3.08;2.87;;;;;;;21.63;100.00;99362.88;1672661;83;22450;-54
2022/07/06 02:02:09;;;;;;;4.25;3.87;;;;;;;21.62;100.00;99358.41;1671336;83;21047;-55
2022/07/06 02:04:35;;;;;;;3.47;3.17;;;;;;;21.60;100.00;99354.98;1700822;82;21452;-52
2022/07/06 02:07:03;;;;;;;3.05;2.83;;;;;;;21.57;100.00;99357.16;1668105;83;21503;-51
2022/07/06 02:09:30;;;;;;;3.90;2.58;;;;;;;21.55;100.00;99354.56;1682702;83;21405;-52
2022/07/06 02:11:58;;;;;;;3.30;3.00;;;;;;;21.55;100.00;99359.17;1667406;83;21078;-53
2022/07/06 02:14:25;;;;;;;3.00;2.80;;;;;;;21.53;100.00;99351.97;1680970;82;21265;-54
2022/07/06 02:16:52;;;;;;;3.95;2.77;;;;;;;21.54;100.00;99352.84;1685640;82;21061;-52
2022/07/06 02:19:18;;;;;;;3.25;3.12;;;;;;;21.54;100.00;99348.73;1680895;82;21413;-55
2022/07/06 02:21:45;;;;;;;3.47;3.05;;;;;;;21.55;100.00;99350.96;1680909;82;21078;-53
2022/07/06 02:24:12;;;;;;;4.90;3.65;;;;;;;21.55;100.00;99351.83;1686929;82;21069;-54
2022/07/06 02:26:39;;;;;;;2.58;2.35;;;;;;;21.57;100.00;99355.28;1658904;82;21308;-53
2022/07/06 02:29:06;;;;;;;3.00;2.80;;;;;;;21.58;100.00;99352.03;1686683;82;20997;-52
2022/07/06 02:31:32;;;;;;;5.42;2.60;;;;;;;21.59;100.00;99349.15;1695449;81;21536;-52
2022/07/06 02:33:59;;;;;;;2.42;2.15;;;;;;;21.62;100.00;99356.17;1709060;81;20993;-56
2022/07/06 02:36:25;;;;;;;2.58;2.47;;;;;;;21.65;100.00;99357.25;1707650;81;21127;-53
2022/07/06 02:38:52;;;;;;;4.67;2.90;;;;;;;21.67;100.00;99351.98;1709549;81;21086;-54
2022/07/06 02:43:46;;;;;;;3.85;3.55;;;;;;;21.77;100.00;99351.92;1792206;78;28015;-54
2022/07/06 02:46:13;;;;;;;3.35;3.10;;;;;;;21.75;100.00;99360.80;1762156;79;21061;-57
2022/07/06 02:48:40;;;;;;;3.70;3.50;;;;;;;21.76;100.00;99354.30;1760804;79;21286;-54
2022/07/06 02:51:07;;;;;;;5.80;3.22;;;;;;;21.76;100.00;99352.42;1764683;79;20942;-52
2022/07/06 02:53:34;;;;;;;3.25;2.42;;;;;;;21.76;100.00;99342.84;1743632;79;21404;-53
2022/07/06 02:56:01;;;;;;;3.50;3.12;;;;;;;21.78;100.00;99344.03;1771752;79;20915;-55
2022/07/06 02:58:28;;;;;;;2.17;1.98;;;;;;;21.79;100.00;99345.75;1752352;79;20997;-53
2022/07/06 03:00:55;;;;;;;4.12;3.37;;;;;;;21.81;100.00;99348.70;1748829;80;21432;-54
2022/07/06 03:03:21;;;;;;;4.58;3.83;;;;;;;21.82;100.00;99341.34;1745436;80;20938;-54
2022/07/06 03:05:48;;;;;;;4.05;3.75;;;;;;;21.84;100.00;99351.65;1739452;80;21013;-55
2022/07/06 03:08:15;;;;;;;4.25;3.58;;;;;;;21.84;100.00;99344.30;1743988;80;21566;-54
2022/07/06 03:10:42;;;;;;;3.37;3.20;;;;;;;21.86;100.00;99346.34;1742592;80;21033;-55
2022/07/06 03:13:09;;;;;;;4.03;3.20;;;;;;;21.87;100.00;99340.36;1746888;80;21021;-56
2022/07/06 03:15:37;;;;;;;2.95;2.83;;;;;;;21.89;100.00;99352.89;1716500;80;21082;-53
2022/07/06 03:18:04;;;;;;;2.67;2.47;;;;;;;21.90;100.00;99347.77;1743587;80;21178;-54
2022/07/06 03:20:30;;;;;;;4.08;2.85;;;;;;;21.95;100.00;99347.83;1742920;80;21084;-52
2022/07/06 03:22:57;;;;;;;2.67;2.58;;;;;;;21.98;100.00;99348.39;1741405;80;21523;-54
2022/07/06 03:25:24;;;;;;;3.42;3.22;;;;;;;22.02;100.00;99350.33;1717700;80;21959;-55
2022/07/06 03:27:50;;;;;;;3.62;2.52;;;;;;;22.06;100.00;99354.46;1676243;83;21076;-53
2022/07/06 03:30:18;;;;;;;2.58;2.47;;;;;;;22.09;100.00;99349.54;1684259;83;22613;-53
2022/07/06 03:32:46;;;;;;;3.35;2.95;;;;;;;22.13;100.00;99348.19;1682417;83;21097;-53
2022/07/06 03:35:13;;;;;;;2.90;2.70;;;;;;;22.18;100.00;99349.11;1690031;83;21492;-53
2022/07/06 03:37:41;;;;;;;2.50;2.27;;;;;;;22.23;100.00;99348.11;1698920;82;22088;-55
2022/07/06 03:40:09;;;;;;;4.08;1.62;;;;;;;22.29;100.00;99349.39;1699794;82;21140;-53
2022/07/06 03:42:37;;;;;;;1.77;1.67;;;;;;;22.34;100.00;99343.77;1690476;82;21063;-54
2022/07/06 03:45:06;;;;;;;4.40;2.72;;;;;;;22.42;100.00;99356.68;1684355;83;21057;-53
2022/07/06 03:47:34;;;;;;;4.92;2.33;;;;;;;22.49;100.00;99353.65;1686809;83;21157;-55
2022/07/06 03:50:00;;;;;;;4.37;2.52;;;;;;;22.55;100.00;99346.14;1683117;83;21248;-55
2022/07/06 03:52:27;;;;;;;2.83;2.52;;;;;;;22.61;100.00;99345.53;1681037;83;21141;-54
2022/07/06 03:54:56;;;;;;;3.95;3.15;;;;;;;22.64;100.00;99341.94;1699975;82;22469;-55
2022/07/06 03:57:25;;;;;;;3.47;2.17;;;;;;;22.67;100.00;99339.39;1739705;81;21101;-53
2022/07/06 03:59:52;;;;;;;2.42;2.22;;;;;;;22.70;100.00;99335.48;1737355;80;21088;-53
2022/07/06 04:02:19;;;;;;;2.40;2.20;;;;;;;22.73;100.00;99337.87;1745293;80;21185;-55
2022/07/06 04:04:48;;;;;;;2.72;2.52;;;;;;;22.72;100.00;99330.16;1736943;80;21424;-55
2022/07/06 04:07:15;;;;;;;5.28;1.85;;;;;;;22.74;100.00;99329.52;1651577;83;21133;-54
2022/07/06 04:09:41;;;;;;;3.85;1.85;;;;;;;22.76;100.00;99330.73;1741470;80;21081;-55
2022/07/06 04:12:08;;;;;;;3.20;2.90;;;;;;;22.79;100.00;99333.17;1738960;80;21132;-53
2022/07/06 04:14:35;;;;;;;3.25;3.05;;;;;;;22.82;100.00;99333.69;1737675;80;21139;-54
2022/07/06 04:17:51;;;;;;;3.08;2.87;;;;;;;22.84;100.00;99326.67;1675445;83;21122;-53
2022/07/06 04:19:31;;;;;;;3.65;3.35;;;;;;;22.85;100.00;99325.14;1731707;80;21575;-55
2022/07/06 04:21:58;;;;;;;2.37;2.10;;;;;;;22.87;100.00;99328.59;1731637;80;21102;-53
2022/07/06 04:24:25;;;;;;;2.25;2.02;;;;;;;22.90;100.00;99328.77;1737764;80;21131;-54
2022/07/06 04:26:52;;;;;;;2.50;1.75;;;;;;;22.94;100.00;99327.42;1738501;80;21238;-53
2022/07/06 04:29:18;;;;;;;8.68;3.27;;;;;;;22.99;100.00;99326.41;1740795;80;21069;-56
2022/07/06 04:31:45;;;;;;;2.02;1.62;;;;;;;23.06;100.00;99321.98;1743348;80;21077;-55
2022/07/06 04:34:12;;;;;;;2.58;1.30;;;;;;;23.13;100.00;99317.59;1740734;81;21669;-54
2022/07/06 04:36:38;;;;;;;1.70;1.60;;;;;;;23.24;100.00;99319.16;1736248;81;21088;-52
2022/07/06 04:39:05;;;;;;;2.30;2.10;;;;;;;23.32;100.00;99320.56;1735677;80;21796;-53
2022/07/06 04:41:32;;;;;;;2.08;1.20;;;;;;;23.40;100.00;99309.09;1733510;80;21061;-53
2022/07/06 04:43:59;;;;;;;1.50;1.20;;;;;;;23.49;100.00;99310.53;1713396;81;21626;-54
2022/07/06 04:46:27;;;;;;;9.18;1.27;;;;;;;23.58;100.00;99313.14;1698234;82;21045;-56
2022/07/06 04:48:53;;;;;;;2.35;1.10;;;;;;;23.66;100.00;99310.41;1705136;82;21088;-55
2022/07/06 04:51:22;;;;;;;2.75;1.12;;;;;;;23.76;100.00;99311.64;1702537;82;21112;-55
2022/07/06 04:53:48;;;;;;;1.20;1.10;;;;;;;23.87;100.00;99312.70;1699839;82;21612;-55
2022/07/06 04:56:15;;;;;;;1.10;1.00;;;;;;;23.99;100.00;99301.71;1710325;82;21467;-55
2022/07/06 04:58:42;;;;;;;1.95;1.00;;;;;;;24.11;100.00;99310.50;1700017;82;21300;-56
2022/07/06 05:01:10;;;;;;;1.50;1.12;;;;;;;24.24;100.00;99311.41;1699938;82;21068;-56
2022/07/06 05:03:40;;;;;;;2.15;0.90;;;;;;;24.34;100.00;99304.69;1672911;82;21294;-55
2022/07/06 05:06:05;;;;;;;5.53;0.88;;;;;;;24.44;100.00;99305.38;1698559;82;21052;-57
2022/07/06 05:08:33;;;;;;;3.83;1.10;;;;;;;24.55;100.00;99304.17;1700376;82;22111;-55
2022/07/06 05:11:00;;;;;;;3.22;1.00;;;;;;;24.63;100.00;99304.67;1698954;82;21048;-55
2022/07/06 05:13:27;;;;;;;3.90;0.90;;;;;;;24.71;100.00;99300.53;1707701;82;21536;-58
2022/07/06 05:15:55;;;;;;;13.40;1.47;;;;;;;24.78;100.00;99296.90;1705764;82;21823;-56
2022/07/06 05:18:21;;;;;;;1.10;0.90;;;;;;;24.87;100.00;99292.23;1717076;82;20961;-56
2022/07/06 05:20:48;;;;;;;7.72;1.75;;;;;;;24.96;100.00;99295.34;1712794;82;21429;-54
2022/07/06 05:23:15;;;;;;;3.87;1.00;;;;;;;25.07;100.00;99302.38;1693748;82;21025;-55
2022/07/06 05:25:43;;;;;;;1.72;0.90;;;;;;;25.16;100.00;99311.81;1710007;82;21053;-55
2022/07/06 05:28:10;;;;;;;2.70;0.82;;;;;;;25.29;100.00;99331.88;1709242;81;21396;-54
2022/07/06 05:30:37;;;;;;;4.08;0.90;;;;;;;25.40;100.00;99327.38;1707346;82;21603;-54
2022/07/06 05:33:04;;;;;;;1.40;1.00;;;;;;;25.47;100.00;99309.08;1709369;82;21056;-55
2022/07/06 05:35:32;;;;;;;1.02;0.80;;;;;;;25.51;100.00;99302.19;1713933;82;20961;-54
2022/07/06 05:37:59;;;;;;;0.88;0.70;;;;;;;25.60;100.00;99301.66;1679933;83;21124;-57
2022/07/06 05:40:27;;;;;;;10.32;1.10;;;;;;;25.67;100.00;99300.41;1711168;82;22501;-55
2022/07/06 05:42:54;;;;;;;1.07;0.80;;;;;;;25.73;100.00;99296.92;1722415;80;21020;-58
2022/07/06 05:45:22;;;;;;;3.10;0.82;;;;;;;25.81;100.00;99303.77;1734998;80;21471;-57
2022/07/06 05:50:34;;;;;;;2.10;0.80;;;;;;;25.96;100.00;99290.90;1738177;80;21088;-55
2022/07/06 05:53:04;;;;;;;1.85;0.80;;;;;;;26.02;100.00;99284.67;1736731;80;21536;-55
2022/07/06 05:55:30;;;;;;;0.90;0.80;;;;;;;26.06;100.00;99277.73;1739066;80;21026;-55
2022/07/06 05:57:58;;;;;;;3.40;0.72;;;;;;;26.10;100.00;99277.71;1735412;80;21584;-55
2022/07/06 06:00:27;;;;;;;0.80;0.70;;;;;;;26.14;100.00;99274.91;1739908;80;21281;-55
2022/07/06 06:02:54;;;;;;;0.90;0.90;;;;;;;26.19;100.00;99274.38;1736226;80;21101;-57
2022/07/06 06:05:21;;;;;;;2.50;0.78;;;;;;;26.25;100.00;99262.58;1706997;82;21236;-55
2022/07/06 06:07:51;;;;;;;23.73;2.50;;;;;;;26.30;100.00;99261.00;1733212;80;21180;-52
2022/07/06 06:10:19;;;;;;;2.70;0.90;;;;;;;26.37;100.00;99256.45;1741334;80;21456;-55
2022/07/06 06:12:48;;;;;;;0.70;0.70;;;;;;;26.45;100.00;99256.06;1743127;80;21663;-57
2022/07/06 06:15:15;;;;;;;3.08;0.72;;;;;;;26.52;100.00;99257.88;1738399;80;20958;-54
2022/07/06 06:17:41;;;;;;;1.15;0.80;;;;;;;26.58;100.00;99257.13;1735023;80;21542;-53
2022/07/06 06:20:10;;;;;;;1.00;0.80;;;;;;;26.64;100.00;99259.12;1736594;80;21033;-56
2022/07/06 06:22:51;;;;;;;1.05;0.80;;;;;;;26.71;100.00;99257.87;1734235;80;21053;-54
2022/07/06 06:25:21;;;;;;;4.10;0.80;;;;;;;26.78;100.00;99256.58;1732686;80;21104;-53
2022/07/06 06:27:48;;;;;;;3.25;0.90;;;;;;;26.84;100.00;99249.77;1735689;80;21068;-56
2022/07/06 06:30:14;;;;;;;1.70;0.80;;;;;;;26.90;100.00;99246.23;1737762;80;21148;-52
2022/07/06 06:32:41;;;;;;;12.33;1.75;;;;;;;26.96;100.00;99249.67;1734351;80;21042;-54
2022/07/06 06:35:08;;;;;;;4.67;0.85;;;;;;;27.02;100.00;99253.05;1734177;80;21032;-55
2022/07/06 06:37:35;;;;;;;0.90;0.80;;;;;;;27.07;100.00;99246.93;1737349;80;21365;-54
2022/07/06 06:40:02;;;;;;;1.57;0.75;;;;;;;27.13;100.00;99243.95;1737413;80;21110;-53
2022/07/06 06:42:29;;;;;;;2.77;0.90;;;;;;;27.18;100.00;99242.31;1738319;80;21176;-53
2022/07/06 06:44:57;;;;;;;2.75;0.70;;;;;;;27.23;100.00;99237.58;1727691;81;22244;-52
2022/07/06 06:47:23;;;;;;;3.05;0.80;;;;;;;27.28;100.00;99240.11;1726765;81;21475;-54
2022/07/06 06:49:49;;;;;;;2.08;0.80;;;;;;;27.35;100.00;99234.14;1727742;81;21069;-53
2022/07/06 06:52:16;;;;;;;2.40;0.80;;;;;;;27.40;100.00;99227.49;1723645;81;21507;-53
2022/07/06 06:54:42;;;;;;;2.62;0.70;;;;;;;27.47;100.00;99228.98;1654665;84;21539;-54
2022/07/06 06:57:09;;;;;;;2.62;0.70;;;;;;;27.54;100.00;99225.80;1645989;85;21121;-57
2022/07/06 06:59:35;;;;;;;4.65;0.70;;;;;;;27.60;100.00;99220.86;1651563;85;21148;-52
2022/07/06 07:02:02;;;;;;;2.15;1.02;;;;;;;27.67;100.00;99218.16;1725631;81;21117;-56
2022/07/06 07:04:30;;;;;;;2.05;0.70;;;;;;;27.74;100.00;99224.08;1726412;81;21026;-54
2022/07/06 07:06:57;;;;;;;2.33;0.70;;;;;;;27.81;100.00;99226.42;1726627;81;21664;-52
2022/07/06 07:09:25;;;;;;;2.77;0.70;;;;;;;27.88;100.00;99217.33;1728349;81;21140;-53
2022/07/06 07:11:51;;;;;;;1.95;0.70;;;;;;;27.95;100.00;99226.54;1723389;81;21157;-54
2022/07/06 07:14:18;;;;;;;1.00;0.60;;;;;;;28.04;100.00;99226.73;1726222;81;21614;-56
2022/07/06 07:16:45;;;;;;;4.03;0.50;;;;;;;28.11;100.00;99219.34;1724213;81;21096;-55
2022/07/06 07:19:11;;;;;;;3.95;1.27;;;;;;;28.17;100.00;99218.05;1684152;83;21257;-53
2022/07/06 07:21:38;;;;;;;1.70;0.60;;;;;;;28.26;100.00;99208.22;1723542;81;21075;-53
2022/07/06 07:24:05;;;;;;;2.42;0.70;;;;;;;28.33;100.00;99215.52;1724030;81;21513;-53
2022/07/06 07:26:32;;;;;;;0.60;0.60;;;;;;;28.40;100.00;99210.06;1726796;81;21466;-53
2022/07/06 07:28:58;;;;;;;2.10;0.70;;;;;;;28.46;100.00;99212.02;1725406;81;21074;-56
2022/07/06 07:31:25;;;;;;;2.15;0.60;;;;;;;28.50;100.00;99210.53;1722718;81;21221;-56
2022/07/06 07:33:51;;;;;;;0.95;0.70;;;;;;;28.55;100.00;99210.28;1724898;81;21513;-56
2022/07/06 07:36:18;;;;;;;0.70;0.70;;;;;;;28.60;100.00;99211.90;1728235;81;21105;-56
2022/07/06 07:38:44;;;;;;;6.45;1.22;;;;;;;28.69;100.00;99215.89;1724694;81;21055;-56
2022/07/06 07:41:13;;;;;;;0.70;0.70;;;;;;;28.75;100.00;99215.10;1723646;81;21958;-58
2022/07/06 07:43:39;;;;;;;1.35;0.70;;;;;;;28.81;100.00;99215.70;1720025;81;21162;-59
2022/07/06 07:46:06;;;;;;;1.57;0.60;;;;;;;28.86;100.00;99221.47;1706843;82;21588;-58
2022/07/06 07:48:32;;;;;;;2.17;0.60;;;;;;;28.91;100.00;99218.96;1707097;82;21053;-56
2022/07/06 07:50:59;;;;;;;4.85;0.60;;;;;;;28.95;100.00;99219.72;1709106;82;20964;-56
2022/07/06 07:53:26;;;;;;;2.25;1.20;;;;;;;29.02;100.00;99215.59;1704270;82;21045;-54
2022/07/06 07:55:52;;;;;;;1.42;0.70;;;;;;;29.08;100.00;99217.56;1712520;82;21471;-54
2022/07/06 07:58:19;;;;;;;2.05;0.72;;;;;;;29.14;100.00;99211.72;1704149;82;21040;-56
2022/07/06 08:00:46;;;;;;;1.25;0.60;;;;;;;29.18;100.00;99211.61;1702486;82;21080;-54
2022/07/06 08:03:13;;;;;;;1.35;0.60;;;;;;;29.22;100.00;99208.23;1705032;82;21129;-56
2022/07/06 08:05:39;;;;;;;2.70;0.70;;;;;;;29.31;100.00;99222.25;1705925;82;21086;-55
2022/07/06 08:08:07;;;;;;;0.70;0.70;;;;;;;29.40;100.00;99217.94;1709090;82;21452;-54
2022/07/06 08:10:33;;;;;;;3.10;0.70;;;;;;;29.45;100.00;99216.77;1705454;81;21137;-55
2022/07/06 08:13:00;;;;;;;0.90;0.60;;;;;;;29.50;100.00;99213.72;1705775;82;21035;-54
2022/07/06 08:15:27;;;;;;;1.95;0.80;;;;;;;29.56;100.00;99215.65;1702374;82;21678;-54
2022/07/06 08:17:53;;;;;;;2.02;0.70;;;;;;;29.60;100.00;99202.23;1701662;82;21085;-56
2022/07/06 08:20:20;;;;;;;3.05;0.90;;;;;;;29.67;100.00;99206.73;1703511;82;21407;-55
2022/07/06 08:22:46;;;;;;;0.88;0.70;;;;;;;29.72;100.00;99209.72;1701106;82;21546;-57
2022/07/06 08:25:13;;;;;;;5.25;0.62;;;;;;;29.79;100.00;99207.48;1703305;82;21753;-57
2022/07/06 08:27:40;;;;;;;3.17;0.70;;;;;;;29.84;100.00;99208.58;1708806;82;21092;-56
2022/07/06 08:30:09;;;;;;;1.80;0.50;;;;;;;29.90;100.00;99209.11;1713331;82;20971;-53
2022/07/06 08:32:39;;;;;;;1.12;0.60;;;;;;;29.96;100.00;99199.97;1707233;82;21591;-59
2022/07/06 08:35:06;;;;;;;3.27;0.85;;;;;;;30.01;100.00;99196.05;1716508;82;21345;-55
2022/07/06 08:37:33;;;;;;;3.70;0.68;;;;;;;30.06;100.00;99196.25;1714081;82;20866;-57
2022/07/06 08:40:00;;;;;;;0.72;0.70;;;;;;;30.11;100.00;99192.00;1708349;82;20865;-57
2022/07/06 08:42:33;;;;;;;5.55;1.47;;;;;;;30.17;100.00;99186.44;1711469;82;21384;-56
2022/07/06 08:45:02;;;;;;;2.47;0.72;;;;;;;30.23;100.00;99197.21;1716279;80;21766;-55
2022/07/06 08:47:29;;;;;;;3.70;0.60;;;;;;;30.29;100.00;99193.04;1734976;80;21083;-53
2022/07/06 08:49:58;;;;;;;1.95;0.60;;;;;;;30.35;100.00;99187.19;1733724;80;20871;-56
2022/07/06 08:52:24;;;;;;;1.50;0.55;;;;;;;30.41;100.00;99190.48;1733177;80;21485;-54
2022/07/06 08:54:51;;;;;;;0.60;0.60;;;;;;;30.46;100.00;99183.20;1730109;80;21316;-58
2022/07/06 08:57:18;;;;;;;1.15;0.57;;;;;;;30.51;100.00;99179.83;1731754;80;21150;-58
2022/07/06 08:59:45;;;;;;;4.00;0.60;;;;;;;30.58;100.00;99176.50;1735158;80;21548;-56
2022/07/06 09:02:11;;;;;;;0.75;0.68;;;;;;;30.67;100.00;99180.77;1732753;80;22227;-55
2022/07/06 09:04:40;;;;;;;2.70;0.80;;;;;;;30.75;100.00;99179.14;1727596;81;21109;-56
2022/07/06 09:07:06;;;;;;;4.50;0.70;;;;;;;30.83;100.00;99175.27;1731324;80;21057;-55
2022/07/06 09:09:35;;;;;;;25.37;3.42;;;;;;;30.90;100.00;99176.09;1733630;80;21117;-57
2022/07/06 09:12:01;;;;;;;2.58;0.70;;;;;;;30.97;100.00;99171.90;1725164;81;21117;-56
2022/07/06 09:14:29;;;;;;;3.40;0.60;;;;;;;31.02;100.00;99169.34;1729628;80;21113;-58
2022/07/06 09:17:06;;;;;;;0.90;0.70;;;;;;;31.06;100.00;99171.44;1736549;80;21445;-59
2022/07/06 09:19:35;;;;;;;1.50;0.53;;;;;;;31.11;100.00;99159.18;1668509;83;21086;-58
2022/07/06 09:22:02;;;;;;;3.12;0.70;;;;;;;31.17;100.00;99165.77;1671732;83;21160;-54
2022/07/06 09:24:31;;;;;;;0.93;0.70;;;;;;;31.21;100.00;99155.94;1731676;81;21151;-56
2022/07/06 09:26:58;;;;;;;3.08;0.70;;;;;;;31.26;100.00;99158.89;1727036;80;21084;-55
2022/07/06 09:29:32;;;;;;;2.15;0.70;;;;;;;31.31;100.00;99154.89;1727299;80;21534;-58
2022/07/06 09:32:03;;;;;;;1.10;0.60;;;;;;;31.36;100.00;99144.52;1728477;81;21658;-55
2022/07/06 09:34:44;;;;;;;2.90;0.70;;;;;;;31.39;100.00;99135.73;1729330;80;21144;-53
2022/07/06 09:37:11;;;;;;;3.58;0.75;;;;;;;31.43;100.00;99142.01;1728208;81;21475;-54
2022/07/06 09:39:37;;;;;;;0.80;0.80;;;;;;;31.49;100.00;99138.33;1724959;80;20993;-58
2022/07/06 09:42:06;;;;;;;1.90;0.70;;;;;;;31.52;100.00;99149.55;1727262;80;21066;-57
2022/07/06 09:44:36;;;;;;;0.82;0.80;;;;;;;31.55;100.00;99146.34;1731246;80;21616;-57
2022/07/06 09:47:10;;;;;;;1.98;0.82;;;;;;;31.54;100.00;99127.41;1729482;80;21416;-55
2022/07/06 09:49:38;;;;;;;2.83;0.70;;;;;;;31.56;100.00;99131.32;1737390;80;20899;-57
2022/07/06 09:52:07;;;;;;;1.05;0.80;;;;;;;31.55;100.00;99130.50;1731183;80;20954;-54
2022/07/06 09:54:34;;;;;;;2.85;1.00;;;;;;;31.53;100.00;99127.09;1727754;80;21034;-56
2022/07/06 09:57:03;;;;;;;3.27;0.80;;;;;;;31.52;100.00;99125.37;1734441;81;21156;-54
2022/07/06 09:59:31;;;;;;;0.88;0.80;;;;;;;31.50;100.00;99121.10;1732978;80;21131;-56
2022/07/06 10:02:00;;;;;;;2.92;1.45;;;;;;;31.48;100.00;99126.88;1697411;82;21516;-57
2022/07/06 10:04:27;;;;;;;2.05;0.95;;;;;;;31.49;100.00;99123.03;1667391;83;21549;-56
2022/07/06 10:06:56;;;;;;;1.87;0.90;;;;;;;31.53;100.00;99122.91;1668498;83;21110;-54
2022/07/06 10:09:26;;;;;;;1.57;0.90;;;;;;;31.59;100.00;99119.22;1666518;83;21079;-56
2022/07/06 10:11:56;;;;;;;2.70;0.80;;;;;;;31.67;100.00;99113.95;1665780;83;21260;-55
2022/07/06 10:14:26;;;;;;;2.17;0.90;;;;;;;31.74;100.00;99106.41;1670833;83;21176;-57
2022/07/06 10:16:52;;;;;;;1.40;0.70;;;;;;;31.82;100.00;99106.66;1665280;83;21730;-56
2022/07/06 10:19:21;;;;;;;1.05;0.72;;;;;;;31.91;100.00;99096.42;1668113;83;21066;-56
2022/07/06 10:21:47;;;;;;;2.55;1.00;;;;;;;32.01;100.00;99108.44;1669671;83;20970;-54
2022/07/06 10:24:14;;;;;;;1.85;0.70;;;;;;;32.10;100.00;99100.66;1672842;83;21198;-56
2022/07/06 10:26:41;;;;;;;0.82;0.82;;;;;;;32.17;100.00;99100.94;1667604;83;21054;-55
2022/07/06 10:29:08;;;;;;;4.50;1.07;;;;;;;32.24;100.00;99096.72;1731559;80;21062;-53
2022/07/06 10:31:38;;;;;;;1.20;0.80;;;;;;;32.31;100.00;99088.61;1729701;80;21093;-57
2022/07/06 10:34:06;;;;;;;0.90;0.80;;;;;;;32.40;100.00;99082.73;1734165;80;21070;-55
2022/07/06 10:36:42;;;;;;;1.02;0.90;;;;;;;32.50;100.00;99092.78;1732642;80;22233;-57
2022/07/06 10:41:55;;;;;;;1.42;0.80;;;;;;;32.64;100.00;99086.84;1734922;80;21053;-54
2022/07/06 10:44:24;;;;;;;1.07;0.90;;;;;;;32.66;100.00;99076.88;1731826;80;21073;-55
2022/07/06 10:46:55;;;;;;;1.65;0.90;;;;;;;32.65;100.00;99073.77;1736456;80;21053;-55
2022/07/06 10:49:22;;;;;;;0.80;0.80;;;;;;;32.66;100.00;99078.27;1738939;80;21342;-57
2022/07/06 10:51:49;;;;;;;5.75;0.80;;;;;;;32.69;100.00;99076.41;1675882;83;21003;-55
2022/07/06 10:54:17;;;;;;;1.95;1.00;;;;;;;32.76;100.00;99057.67;1738183;80;21097;-58
2022/07/06 10:56:47;;;;;;;4.67;0.85;;;;;;;32.83;100.00;99062.66;1742382;80;20990;-55
2022/07/06 10:59:15;;;;;;;2.77;0.90;;;;;;;32.89;100.00;99053.34;1674423;83;20923;-58
2022/07/06 11:02:15;;;;;;;1.80;0.90;;;;;;;32.93;100.00;99057.89;1684677;82;22024;-54
2022/07/06 11:04:46;;;;;;;1.67;0.80;;;;;;;32.92;100.00;99045.88;1685286;83;21036;-56
2022/07/06 11:07:16;;;;;;;3.83;1.00;;;;;;;32.95;100.00;99039.00;1686043;83;21089;-53
2022/07/06 11:09:55;;;;;;;0.80;0.80;;;;;;;32.97;100.00;99026.53;1705945;82;21046;-57
2022/07/06 11:12:21;;;;;;;0.98;0.90;;;;;;;33.02;100.00;99029.99;1678901;83;21317;-53
2022/07/06 11:14:51;;;;;;;0.82;0.82;;;;;;;33.03;100.00;99025.58;1741254;80;21398;-55
2022/07/06 11:17:17;;;;;;;3.60;1.12;;;;;;;33.02;100.00;99018.84;1737259;80;20883;-54
2022/07/06 11:20:00;;;;;;;2.62;0.90;;;;;;;32.99;100.00;99016.01;1742035;80;21634;-57
2022/07/06 11:22:28;;;;;;;4.83;0.80;;;;;;;32.98;100.00;99014.30;1708548;80;20947;-56
2022/07/06 11:24:55;;;;;;;5.53;0.90;;;;;;;32.96;100.00;99005.31;1712130;82;20918;-57
2022/07/06 11:27:25;;;;;;;1.60;0.90;;;;;;;32.95;100.00;99012.52;1745661;80;21077;-57
2022/07/06 11:29:51;;;;;;;1.55;1.10;;;;;;;32.96;100.00;99010.04;1739209;80;21291;-58
2022/07/06 11:32:23;;;;;;;3.15;1.00;;;;;;;32.94;100.00;99011.66;1744195;80;20985;-55
2022/07/06 11:34:50;;;;;;;5.87;1.10;;;;;;;32.91;100.00;99014.94;1737801;80;21008;-55